createdAt,value
2018-07-21T00:00:10.708Z,99.99
2018-07-21T00:01:10.637Z,99.99
2018-07-21T00:02:10.607Z,99.99
2018-07-21T00:03:10.582Z,99.99
2018-07-21T00:04:10.570Z,99.99
2018-07-21T00:05:10.532Z,99.99
2018-07-21T00:06:10.474Z,99.99
2018-07-21T00:07:10.439Z,99.99
2018-07-21T00:08:10.440Z,99.99
2018-07-21T00:09:10.377Z,99.99
2018-07-21T00:10:10.340Z,99.99
2018-07-21T00:11:10.319Z,99.99
2018-07-21T00:12:10.281Z,99.99
2018-07-21T00:13:10.257Z,99.99
2018-07-21T00:14:10.230Z,99.99
2018-07-21T00:15:10.170Z,99.99
2018-07-21T00:16:10.196Z,99.99
2018-07-21T00:17:10.105Z,99.99
2018-07-21T00:18:10.153Z,99.99
2018-07-21T00:19:10.050Z,99.99
2018-07-21T00:20:10.016Z,99.99
2018-07-21T00:21:09.976Z,99.99
2018-07-21T00:22:09.972Z,99.99
2018-07-21T00:23:09.913Z,99.99
2018-07-21T00:24:09.875Z,99.99
2018-07-21T00:25:09.834Z,99.99
2018-07-21T00:26:09.810Z,99.99
2018-07-21T00:27:09.773Z,99.99
2018-07-21T00:28:09.743Z,99.99
2018-07-21T00:29:09.701Z,99.99
2018-07-21T00:30:09.672Z,99.99
2018-07-21T00:31:09.640Z,99.99
2018-07-21T00:32:09.610Z,99.99
2018-07-21T00:33:09.576Z,99.99
2018-07-21T00:34:09.542Z,99.99
2018-07-21T00:35:09.512Z,99.99
2018-07-21T00:36:09.480Z,99.99
2018-07-21T00:37:09.430Z,99.99
2018-07-21T00:38:09.403Z,99.99
2018-07-21T00:39:09.378Z,99.99
2018-07-21T00:40:09.337Z,99.99
2018-07-21T00:41:09.315Z,99.99
2018-07-21T00:42:09.279Z,99.99
2018-07-21T00:43:09.255Z,99.99
2018-07-21T00:44:09.212Z,99.99
2018-07-21T00:45:09.207Z,99.99
2018-07-21T00:46:09.145Z,99.99
2018-07-21T00:47:09.115Z,99.99
2018-07-21T00:48:09.085Z,99.99
2018-07-21T00:49:09.043Z,99.99
2018-07-21T00:50:09.013Z,99.99
2018-07-21T00:51:08.981Z,99.99
2018-07-21T00:52:08.929Z,99.99
2018-07-21T00:53:08.900Z,99.99
2018-07-21T00:54:08.891Z,99.99
2018-07-21T00:55:08.836Z,99.99
2018-07-21T00:56:08.828Z,99.99
2018-07-21T00:57:08.792Z,99.99
2018-07-21T00:58:08.738Z,99.99
2018-07-21T00:59:08.716Z,99.99
2018-07-21T01:00:08.670Z,99.99
2018-07-21T01:01:08.638Z,99.99
2018-07-21T01:02:08.594Z,99.99
2018-07-21T01:03:08.569Z,99.99
2018-07-21T01:04:08.536Z,99.99
2018-07-21T01:05:08.496Z,99.99
2018-07-21T01:06:08.471Z,99.99
2018-07-21T01:07:08.433Z,99.99
2018-07-21T01:08:08.394Z,99.99
2018-07-21T01:09:08.360Z,99.99
2018-07-21T01:10:08.325Z,99.99
2018-07-21T01:11:08.313Z,99.99
2018-07-21T01:12:08.269Z,99.99
2018-07-21T01:13:08.218Z,99.99
2018-07-21T01:14:08.203Z,99.99
2018-07-21T01:15:08.158Z,99.99
2018-07-21T01:16:08.134Z,99.99
2018-07-21T01:17:08.098Z,99.99
2018-07-21T01:18:08.068Z,99.99
2018-07-21T01:19:08.044Z,99.99
2018-07-21T01:20:08.001Z,99.99
2018-07-21T01:21:07.958Z,99.99
2018-07-21T01:22:07.923Z,99.99
2018-07-21T01:23:07.900Z,99.99
2018-07-21T01:24:07.871Z,99.99
2018-07-21T01:25:07.824Z,99.99
2018-07-21T01:26:07.791Z,99.99
2018-07-21T01:27:07.766Z,99.99
2018-07-21T01:28:07.724Z,99.99
2018-07-21T01:29:07.699Z,99.99
2018-07-21T01:30:07.666Z,99.99
2018-07-21T01:31:07.626Z,99.99
2018-07-21T01:32:07.603Z,99.99
2018-07-21T01:33:07.549Z,99.99
2018-07-21T01:34:07.519Z,99.99
2018-07-21T01:35:07.514Z,99.99
2018-07-21T01:36:07.476Z,99.99
2018-07-21T01:37:07.421Z,99.99
2018-07-21T01:38:07.393Z,99.99
2018-07-21T01:39:07.349Z,99.99
2018-07-21T01:40:07.335Z,99.99
2018-07-21T01:41:07.284Z,99.99
2018-07-21T01:42:07.255Z,99.99
2018-07-21T01:43:07.205Z,99.99
2018-07-21T01:44:07.190Z,99.99
2018-07-21T01:45:07.156Z,99.99
2018-07-21T01:46:07.106Z,99.99
2018-07-21T01:47:07.083Z,99.99
2018-07-21T01:48:07.051Z,99.99
2018-07-21T01:49:07.003Z,99.99
2018-07-21T01:50:06.978Z,99.99
2018-07-21T01:51:06.955Z,99.99
2018-07-21T01:52:06.905Z,99.99
2018-07-21T01:53:06.880Z,99.99
2018-07-21T01:54:06.838Z,99.99
2018-07-21T01:55:06.812Z,99.99
2018-07-21T01:56:06.765Z,99.99
2018-07-21T01:57:06.811Z,99.99
2018-07-21T01:58:06.724Z,99.99
2018-07-21T01:59:06.681Z,99.99
2018-07-21T02:00:06.636Z,99.99
2018-07-21T02:01:06.613Z,99.99
2018-07-21T02:02:06.592Z,99.99
2018-07-21T02:03:06.543Z,99.99
2018-07-21T02:04:06.513Z,99.99
2018-07-21T02:05:06.469Z,99.99
2018-07-21T02:06:06.450Z,99.99
2018-07-21T02:07:06.402Z,99.99
2018-07-21T02:08:06.371Z,99.99
2018-07-21T02:09:06.341Z,99.99
2018-07-21T02:10:06.299Z,99.99
2018-07-21T02:11:06.269Z,99.99
2018-07-21T02:12:06.240Z,99.99
2018-07-21T02:13:06.194Z,99.99
2018-07-21T02:14:06.170Z,99.99
2018-07-21T02:15:06.120Z,99.99
2018-07-21T02:16:06.103Z,99.99
2018-07-21T02:17:06.064Z,99.99
2018-07-21T02:18:06.034Z,99.99
2018-07-21T02:19:06.004Z,99.99
2018-07-21T02:20:05.976Z,99.99
2018-07-21T02:21:05.927Z,99.99
2018-07-21T02:22:05.923Z,99.99
2018-07-21T02:23:05.874Z,99.99
2018-07-21T02:24:05.842Z,99.99
2018-07-21T02:25:05.800Z,99.99
2018-07-21T02:26:05.770Z,99.99
2018-07-21T02:27:05.725Z,99.99
2018-07-21T02:28:05.712Z,99.99
2018-07-21T02:29:05.662Z,99.99
2018-07-21T02:30:05.637Z,99.99
2018-07-21T02:31:05.598Z,99.99
2018-07-21T02:32:05.573Z,99.99
2018-07-21T02:33:05.543Z,99.99
2018-07-21T02:34:05.504Z,99.99
2018-07-21T02:35:05.488Z,99.99
2018-07-21T02:36:05.428Z,99.99
2018-07-21T02:37:05.393Z,99.99
2018-07-21T02:38:05.374Z,99.99
2018-07-21T02:39:05.338Z,99.99
2018-07-21T02:40:05.305Z,99.99
2018-07-21T02:41:05.286Z,99.99
2018-07-21T02:42:05.228Z,99.99
2018-07-21T02:43:05.204Z,99.99
2018-07-21T02:44:05.162Z,99.99
2018-07-21T02:45:05.129Z,99.99
2018-07-21T02:46:05.126Z,99.99
2018-07-21T02:47:05.070Z,99.99
2018-07-21T02:48:05.028Z,99.99
2018-07-21T02:49:05.007Z,99.99
2018-07-21T02:50:04.974Z,99.99
2018-07-21T02:51:04.927Z,99.99
2018-07-21T02:52:04.897Z,99.99
2018-07-21T02:53:04.860Z,99.99
2018-07-21T02:54:04.818Z,99.99
2018-07-21T02:55:04.790Z,99.99
2018-07-21T02:56:04.770Z,99.99
2018-07-21T02:57:04.729Z,99.99
2018-07-21T02:58:04.693Z,99.99
2018-07-21T02:59:04.676Z,99.99
2018-07-21T03:00:04.617Z,99.99
2018-07-21T03:01:04.610Z,99.99
2018-07-21T03:02:04.564Z,99.99
2018-07-21T03:03:04.529Z,99.99
2018-07-21T03:04:04.480Z,99.99
2018-07-21T03:05:04.468Z,99.99
2018-07-21T03:06:04.452Z,99.99
2018-07-21T03:07:04.390Z,99.99
2018-07-21T03:08:04.368Z,99.99
2018-07-21T03:09:04.325Z,99.99
2018-07-21T03:10:04.328Z,99.99
2018-07-21T03:11:04.260Z,99.99
2018-07-21T03:12:04.218Z,99.99
2018-07-21T03:13:04.212Z,99.99
2018-07-21T03:14:04.148Z,99.99
2018-07-21T03:15:04.120Z,99.99
2018-07-21T03:16:04.087Z,99.99
2018-07-21T03:17:04.065Z,99.99
2018-07-21T03:18:04.023Z,99.99
2018-07-21T03:19:03.979Z,99.99
2018-07-21T03:20:03.947Z,99.99
2018-07-21T03:21:03.934Z,99.99
2018-07-21T03:22:03.889Z,99.99
2018-07-21T03:23:03.866Z,99.99
2018-07-21T03:24:03.865Z,96.08
2018-07-21T03:25:03.763Z,99.72
2018-07-21T03:26:03.855Z,99.48
2018-07-21T03:27:03.699Z,96.27
2018-07-21T03:28:04.677Z,95.98
2018-07-21T03:29:03.629Z,99.52
2018-07-21T03:30:03.615Z,92.54
2018-07-21T03:31:03.591Z,98.57
2018-07-21T03:32:03.535Z,96.27
2018-07-21T03:33:03.498Z,91.68
2018-07-21T03:34:03.489Z,91.77
2018-07-21T03:35:03.439Z,92.40
2018-07-21T03:36:03.399Z,98.14
2018-07-21T03:37:03.368Z,99.99
2018-07-21T03:38:03.348Z,99.99
2018-07-21T03:39:03.300Z,99.99
2018-07-21T03:40:03.252Z,99.99
2018-07-21T03:41:03.226Z,99.99
2018-07-21T03:42:03.194Z,99.99
2018-07-21T03:43:03.157Z,99.99
2018-07-21T03:44:03.123Z,99.99
2018-07-21T03:45:03.091Z,99.99
2018-07-21T03:46:03.059Z,99.99
2018-07-21T03:47:03.021Z,99.99
2018-07-21T03:48:02.985Z,99.99
2018-07-21T03:49:02.963Z,99.99
2018-07-21T03:50:02.985Z,99.99
2018-07-21T03:51:02.901Z,99.99
2018-07-21T03:52:02.868Z,99.99
2018-07-21T03:53:02.828Z,99.99
2018-07-21T03:54:02.785Z,99.99
2018-07-21T03:55:02.802Z,99.99
2018-07-21T03:56:02.734Z,99.99
2018-07-21T03:57:02.680Z,99.99
2018-07-21T03:58:02.668Z,99.99
2018-07-21T03:59:02.660Z,99.99
2018-07-21T04:00:02.579Z,99.99
2018-07-21T04:01:02.564Z,99.99
2018-07-21T04:02:02.520Z,99.99
2018-07-21T04:03:02.507Z,99.99
2018-07-21T04:04:02.451Z,99.99
2018-07-21T04:05:02.417Z,99.99
2018-07-21T04:06:02.375Z,99.99
2018-07-21T04:07:02.370Z,99.99
2018-07-21T04:08:02.319Z,99.99
2018-07-21T04:09:02.349Z,99.99
2018-07-21T04:10:02.236Z,99.99
2018-07-21T04:11:02.223Z,99.99
2018-07-21T04:12:02.176Z,99.99
2018-07-21T04:13:02.156Z,99.99
2018-07-21T04:14:02.130Z,99.99
2018-07-21T04:15:02.124Z,99.99
2018-07-21T04:16:02.100Z,99.99
2018-07-21T04:17:02.018Z,99.99
2018-07-21T04:18:01.994Z,99.99
2018-07-21T04:19:01.982Z,99.99
2018-07-21T04:20:01.938Z,99.99
2018-07-21T04:21:01.925Z,99.99
2018-07-21T04:22:01.837Z,99.99
2018-07-21T04:23:01.824Z,99.99
2018-07-21T04:24:01.813Z,99.99
2018-07-21T04:25:01.753Z,99.99
2018-07-21T04:26:01.749Z,99.99
2018-07-21T04:27:01.692Z,99.99
2018-07-21T04:28:01.715Z,99.99
2018-07-21T04:29:01.635Z,99.99
2018-07-21T04:30:01.615Z,99.99
2018-07-21T04:31:01.552Z,99.99
2018-07-21T04:32:01.565Z,99.99
2018-07-21T04:33:01.508Z,99.99
2018-07-21T04:34:01.463Z,99.99
2018-07-21T04:35:01.422Z,99.99
2018-07-21T04:36:01.382Z,99.99
2018-07-21T04:37:01.359Z,99.99
2018-07-21T04:38:01.406Z,99.99
2018-07-21T04:39:01.302Z,99.99
2018-07-21T04:40:01.266Z,99.99
2018-07-21T04:41:01.255Z,99.99
2018-07-21T04:42:01.199Z,99.99
2018-07-21T04:43:01.174Z,99.99
2018-07-21T04:44:01.226Z,99.99
2018-07-21T04:45:01.107Z,99.99
2018-07-21T04:46:01.092Z,99.99
2018-07-21T04:47:01.095Z,99.99
2018-07-21T04:48:01.001Z,99.99
2018-07-21T04:49:00.965Z,99.99
2018-07-21T04:50:00.935Z,99.99
2018-07-21T04:51:00.903Z,99.99
2018-07-21T04:52:00.853Z,99.99
2018-07-21T04:53:00.841Z,99.99
2018-07-21T04:54:00.821Z,99.99
2018-07-21T04:55:00.774Z,99.99
2018-07-21T04:56:00.776Z,99.99
2018-07-21T04:57:00.712Z,99.99
2018-07-21T04:58:00.705Z,99.99
2018-07-21T04:59:00.666Z,99.99
2018-07-21T05:00:00.645Z,99.99
2018-07-21T05:01:00.620Z,99.99
2018-07-21T05:02:00.539Z,99.99
2018-07-21T05:03:00.528Z,99.99
2018-07-21T05:04:00.516Z,99.99
2018-07-21T05:05:00.460Z,99.99
2018-07-21T05:06:00.424Z,99.99
2018-07-21T05:07:00.378Z,99.99
2018-07-21T05:08:00.358Z,99.99
2018-07-21T05:09:00.324Z,99.99
2018-07-21T05:10:00.287Z,99.99
2018-07-21T05:11:00.271Z,99.99
2018-07-21T05:12:00.236Z,99.99
2018-07-21T05:13:00.197Z,99.99
2018-07-21T05:14:00.177Z,99.59
2018-07-21T05:15:00.163Z,99.84
2018-07-21T05:16:00.111Z,98.82
2018-07-21T05:17:00.171Z,93.76
2018-07-21T05:18:00.073Z,90.58
2018-07-21T05:19:00.016Z,86.15
2018-07-21T05:19:59.998Z,86.68
2018-07-21T05:20:59.969Z,84.94
2018-07-21T05:21:59.930Z,85.08
2018-07-21T05:22:59.910Z,83.15
2018-07-21T05:23:59.861Z,81.18
2018-07-21T05:24:59.831Z,81.85
2018-07-21T05:25:59.808Z,83.69
2018-07-21T05:26:59.788Z,85.61
2018-07-21T05:27:59.754Z,87.06
2018-07-21T05:28:59.729Z,83.84
2018-07-21T05:29:59.707Z,85.09
2018-07-21T05:30:59.660Z,88.27
2018-07-21T05:31:59.628Z,87.40
2018-07-21T05:32:59.601Z,87.26
2018-07-21T05:33:59.578Z,88.31
2018-07-21T05:34:59.543Z,82.82
2018-07-21T05:35:59.528Z,81.99
2018-07-21T05:36:59.487Z,81.41
2018-07-21T05:37:59.453Z,81.51
2018-07-21T05:38:59.467Z,81.60
2018-07-21T05:39:59.389Z,82.48
2018-07-21T05:40:59.369Z,85.19
2018-07-21T05:41:59.357Z,88.37
2018-07-21T05:42:59.305Z,90.97
2018-07-21T05:43:59.296Z,96.27
2018-07-21T05:44:59.287Z,93.86
2018-07-21T05:45:59.231Z,96.17
2018-07-21T05:46:59.231Z,96.08
2018-07-21T05:47:59.191Z,96.08
2018-07-21T05:48:59.174Z,99.99
2018-07-21T05:49:59.122Z,98.39
2018-07-21T05:50:59.086Z,97.52
2018-07-21T05:51:59.090Z,99.99
2018-07-21T05:52:59.053Z,98.87
2018-07-21T05:53:59.089Z,99.99
2018-07-21T05:54:59.055Z,98.00
2018-07-21T05:55:58.987Z,94.63
2018-07-21T05:56:58.941Z,92.90
2018-07-21T05:57:58.969Z,93.76
2018-07-21T05:58:58.932Z,96.61
2018-07-21T05:59:58.837Z,95.36
2018-07-21T06:00:58.812Z,99.99
2018-07-21T06:01:58.794Z,99.55
2018-07-21T06:02:58.837Z,96.08
2018-07-21T06:03:58.833Z,96.56
2018-07-21T06:04:58.704Z,95.25
2018-07-21T06:05:58.748Z,92.94
2018-07-21T06:06:58.652Z,87.00
2018-07-21T06:07:58.616Z,82.61
2018-07-21T06:08:58.585Z,82.32
2018-07-21T06:09:58.572Z,85.45
2018-07-21T06:10:58.569Z,87.73
2018-07-21T06:11:58.509Z,94.20
2018-07-21T06:12:58.484Z,92.65
2018-07-21T06:13:58.480Z,91.01
2018-07-21T06:14:58.420Z,89.17
2018-07-21T06:15:58.402Z,92.80
2018-07-21T06:16:58.390Z,92.80
2018-07-21T06:17:58.363Z,95.31
2018-07-21T06:18:58.343Z,98.78
2018-07-21T06:19:58.298Z,98.78
2018-07-21T06:20:58.319Z,94.92
2018-07-21T06:21:58.237Z,97.28
2018-07-21T06:22:58.285Z,94.43
2018-07-21T06:23:58.215Z,92.12
2018-07-21T06:24:58.146Z,94.96
2018-07-21T06:25:58.177Z,96.61
2018-07-21T06:26:58.094Z,95.64
2018-07-21T06:27:58.076Z,99.99
2018-07-21T06:28:58.041Z,99.99
2018-07-21T06:29:58.013Z,99.99
2018-07-21T06:30:57.994Z,99.99
2018-07-21T06:31:57.963Z,99.99
2018-07-21T06:32:57.948Z,99.99
2018-07-21T06:33:57.911Z,99.99
2018-07-21T06:34:57.877Z,99.99
2018-07-21T06:35:57.964Z,88.31
2018-07-21T06:36:57.876Z,87.63
2018-07-21T06:37:57.930Z,85.06
2018-07-21T06:38:57.909Z,85.06
2018-07-21T06:39:57.882Z,84.48
2018-07-21T06:40:57.813Z,88.78
2018-07-21T06:41:57.801Z,85.21
2018-07-21T06:42:57.785Z,87.81
2018-07-21T06:43:57.664Z,86.75
2018-07-21T06:44:57.614Z,89.75
2018-07-21T06:45:57.605Z,88.73
2018-07-21T06:46:57.573Z,85.44
2018-07-21T06:47:57.558Z,85.15
2018-07-21T06:48:57.516Z,83.03
2018-07-21T06:49:57.516Z,80.12
2018-07-21T06:50:57.506Z,80.12
2018-07-21T06:51:57.424Z,79.54
2018-07-21T06:52:57.401Z,81.42
2018-07-21T06:53:57.368Z,79.68
2018-07-21T06:54:57.359Z,80.69
2018-07-21T06:55:57.311Z,79.33
2018-07-21T06:56:57.329Z,81.46
2018-07-21T06:57:57.271Z,79.24
2018-07-21T06:58:57.247Z,76.82
2018-07-21T06:59:57.217Z,76.66
2018-07-21T07:00:57.176Z,68.56
2018-07-21T07:01:57.147Z,70.83
2018-07-21T07:02:57.127Z,68.54
2018-07-21T07:03:57.097Z,65.66
2018-07-21T07:04:57.073Z,64.23
2018-07-21T07:05:57.052Z,60.87
2018-07-21T07:06:57.023Z,58.83
2018-07-21T07:07:57.041Z,59.64
2018-07-21T07:08:56.968Z,57.60
2018-07-21T07:09:56.936Z,55.80
2018-07-21T07:10:56.925Z,56.39
2018-07-21T07:11:56.877Z,56.10
2018-07-21T07:12:56.860Z,56.51
2018-07-21T07:13:56.847Z,57.49
2018-07-21T07:14:56.821Z,57.75
2018-07-21T07:15:56.796Z,55.78
2018-07-21T07:16:56.773Z,56.39
2018-07-21T07:17:56.749Z,54.71
2018-07-21T07:18:56.710Z,55.46
2018-07-21T07:19:56.691Z,54.78
2018-07-21T07:20:56.656Z,55.39
2018-07-21T07:21:56.646Z,56.07
2018-07-21T07:22:56.618Z,55.78
2018-07-21T07:23:56.593Z,57.75
2018-07-21T07:24:56.566Z,57.26
2018-07-21T07:25:56.562Z,57.00
2018-07-21T07:26:56.634Z,57.33
2018-07-21T07:27:56.507Z,57.43
2018-07-21T07:28:56.503Z,57.92
2018-07-21T07:29:56.470Z,56.29
2018-07-21T07:30:56.456Z,54.54
2018-07-21T07:31:56.417Z,53.89
2018-07-21T07:32:56.405Z,53.30
2018-07-21T07:33:56.384Z,54.82
2018-07-21T07:34:56.341Z,49.95
2018-07-21T07:35:56.323Z,51.51
2018-07-21T07:36:56.292Z,51.51
2018-07-21T07:37:56.280Z,50.82
2018-07-21T07:38:56.277Z,51.70
2018-07-21T07:39:56.247Z,50.09
2018-07-21T07:40:56.214Z,50.26
2018-07-21T07:41:56.194Z,51.61
2018-07-21T07:42:56.165Z,51.90
2018-07-21T07:43:56.144Z,51.45
2018-07-21T07:44:56.121Z,53.16
2018-07-21T07:45:56.101Z,54.88
2018-07-21T07:46:56.106Z,55.85
2018-07-21T07:47:56.068Z,55.82
2018-07-21T07:48:56.030Z,56.28
2018-07-21T07:49:56.005Z,56.37
2018-07-21T07:50:55.990Z,55.79
2018-07-21T07:51:55.977Z,56.54
2018-07-21T07:52:55.934Z,57.70
2018-07-21T07:53:55.924Z,57.44
2018-07-21T07:54:55.895Z,56.28
2018-07-21T07:55:55.867Z,57.25
2018-07-21T07:56:55.861Z,59.19
2018-07-21T07:57:55.836Z,57.03
2018-07-21T07:58:55.815Z,57.19
2018-07-21T07:59:55.782Z,57.87
2018-07-21T08:00:55.760Z,58.06
2018-07-21T08:01:55.733Z,60.68
2018-07-21T08:02:55.702Z,59.42
2018-07-21T08:03:55.689Z,59.59
2018-07-21T08:04:55.674Z,59.91
2018-07-21T08:05:55.649Z,60.39
2018-07-21T08:06:55.609Z,61.17
2018-07-21T08:07:55.588Z,59.69
2018-07-21T08:08:55.567Z,60.46
2018-07-21T08:09:55.543Z,61.36
2018-07-21T08:10:55.518Z,59.59
2018-07-21T08:11:55.483Z,61.46
2018-07-21T08:12:55.459Z,61.82
2018-07-21T08:13:55.432Z,61.07
2018-07-21T08:14:55.434Z,59.88
2018-07-21T08:15:55.386Z,61.17
2018-07-21T08:16:55.367Z,61.26
2018-07-21T08:17:55.341Z,61.75
2018-07-21T08:18:55.323Z,60.00
2018-07-21T08:19:55.303Z,59.42
2018-07-21T08:20:55.267Z,61.75
2018-07-21T08:21:55.252Z,62.82
2018-07-21T08:22:55.224Z,61.94
2018-07-21T08:23:55.192Z,62.43
2018-07-21T08:24:55.171Z,60.78
2018-07-21T08:25:55.137Z,63.49
2018-07-21T08:26:55.128Z,65.92
2018-07-21T08:27:55.084Z,61.36
2018-07-21T08:28:55.129Z,62.04
2018-07-21T08:29:55.060Z,63.01
2018-07-21T08:30:55.014Z,64.47
2018-07-21T08:31:54.988Z,63.98
2018-07-21T08:32:54.966Z,63.01
2018-07-21T08:33:54.977Z,63.17
2018-07-21T08:34:54.904Z,63.17
2018-07-21T08:35:54.903Z,65.11
2018-07-21T08:36:54.856Z,66.05
2018-07-21T08:37:54.844Z,66.14
2018-07-21T08:38:54.824Z,67.95
2018-07-21T08:39:54.778Z,67.95
2018-07-21T08:40:54.761Z,69.98
2018-07-21T08:41:54.741Z,68.82
2018-07-21T08:42:54.768Z,68.24
2018-07-21T08:43:54.682Z,68.40
2018-07-21T08:44:54.661Z,70.24
2018-07-21T08:45:54.628Z,70.82
2018-07-21T08:46:54.630Z,69.85
2018-07-21T08:47:54.622Z,71.50
2018-07-21T08:48:54.585Z,71.88
2018-07-21T08:49:54.604Z,72.46
2018-07-21T08:50:54.511Z,71.11
2018-07-21T08:51:54.507Z,71.11
2018-07-21T08:52:54.450Z,73.04
2018-07-21T08:53:54.423Z,70.82
2018-07-21T08:54:54.397Z,71.11
2018-07-21T08:55:54.413Z,70.14
2018-07-21T08:56:54.347Z,70.14
2018-07-21T08:57:54.343Z,71.98
2018-07-21T08:58:54.783Z,71.01
2018-07-21T08:59:54.267Z,70.04
2018-07-21T09:00:54.231Z,70.04
2018-07-21T09:01:54.206Z,69.75
2018-07-21T09:02:54.183Z,69.95
2018-07-21T09:03:54.149Z,71.98
2018-07-21T09:04:54.119Z,71.11
2018-07-21T09:05:54.104Z,71.98
2018-07-21T09:06:54.084Z,72.36
2018-07-21T09:07:54.043Z,72.08
2018-07-21T09:08:54.026Z,72.17
2018-07-21T09:09:54.023Z,73.14
2018-07-21T09:10:53.953Z,74.88
2018-07-21T09:11:53.940Z,74.49
2018-07-21T09:12:53.904Z,74.69
2018-07-21T09:13:53.917Z,74.49
2018-07-21T09:14:53.854Z,72.27
2018-07-21T09:15:53.842Z,75.17
2018-07-21T09:16:53.811Z,75.56
2018-07-21T09:17:53.772Z,74.98
2018-07-21T09:18:53.744Z,75.46
2018-07-21T09:19:53.721Z,74.21
2018-07-21T09:20:53.692Z,75.37
2018-07-21T09:21:53.673Z,73.63
2018-07-21T09:22:53.642Z,76.62
2018-07-21T09:23:53.604Z,74.79
2018-07-21T09:24:53.587Z,74.59
2018-07-21T09:25:53.551Z,73.72
2018-07-21T09:26:53.530Z,74.49
2018-07-21T09:27:53.510Z,75.85
2018-07-21T09:28:53.480Z,75.65
2018-07-21T09:29:53.451Z,79.14
2018-07-21T09:30:53.416Z,77.11
2018-07-21T09:31:53.395Z,75.46
2018-07-21T09:32:53.355Z,77.59
2018-07-21T09:33:53.360Z,75.65
2018-07-21T09:34:53.351Z,73.91
2018-07-21T09:35:53.278Z,75.95
2018-07-21T09:36:53.273Z,75.17
2018-07-21T09:37:53.221Z,75.70
2018-07-21T09:38:53.222Z,75.11
2018-07-21T09:39:53.194Z,74.63
2018-07-21T09:40:53.147Z,73.18
2018-07-21T09:41:53.127Z,72.40
2018-07-21T09:42:53.109Z,72.50
2018-07-21T09:43:53.129Z,73.37
2018-07-21T09:44:53.071Z,73.57
2018-07-21T09:45:53.023Z,72.79
2018-07-21T09:46:52.986Z,75.02
2018-07-21T09:47:52.958Z,72.11
2018-07-21T09:48:52.941Z,74.24
2018-07-21T09:49:52.939Z,73.85
2018-07-21T09:50:52.934Z,74.92
2018-07-21T09:51:52.850Z,74.53
2018-07-21T09:52:52.890Z,74.47
2018-07-21T09:53:52.826Z,72.50
2018-07-21T09:54:52.775Z,74.43
2018-07-21T09:55:52.811Z,75.31
2018-07-21T09:56:52.719Z,75.21
2018-07-21T09:57:52.690Z,76.46
2018-07-21T09:58:52.662Z,73.85
2018-07-21T09:59:52.639Z,74.63
2018-07-21T10:00:52.596Z,76.08
2018-07-21T10:01:52.573Z,75.40
2018-07-21T10:02:52.541Z,74.34
2018-07-21T10:03:52.546Z,74.34
2018-07-21T10:04:52.503Z,72.50
2018-07-21T10:05:52.469Z,70.66
2018-07-21T10:06:52.460Z,71.92
2018-07-21T10:07:52.410Z,71.08
2018-07-21T10:08:52.388Z,72.24
2018-07-21T10:09:52.362Z,72.92
2018-07-21T10:10:52.350Z,71.95
2018-07-21T10:11:52.325Z,72.15
2018-07-21T10:12:52.281Z,71.76
2018-07-21T10:13:52.258Z,74.86
2018-07-21T10:14:52.242Z,76.41
2018-07-21T10:15:52.209Z,77.19
2018-07-21T10:16:52.172Z,74.47
2018-07-21T10:17:52.152Z,74.38
2018-07-21T10:18:52.117Z,75.73
2018-07-21T10:19:52.086Z,73.11
2018-07-21T10:20:52.064Z,73.21
2018-07-21T10:21:52.098Z,74.57
2018-07-21T10:22:52.013Z,78.05
2018-07-21T10:23:51.975Z,73.02
2018-07-21T10:24:51.969Z,73.08
2018-07-21T10:25:51.928Z,76.46
2018-07-21T10:26:51.893Z,72.34
2018-07-21T10:27:51.901Z,72.34
2018-07-21T10:28:51.848Z,73.89
2018-07-21T10:29:51.823Z,74.38
2018-07-21T10:30:51.815Z,74.66
2018-07-21T10:31:51.781Z,73.25
2018-07-21T10:32:51.753Z,71.41
2018-07-21T10:33:51.731Z,70.92
2018-07-21T10:34:51.692Z,71.89
2018-07-21T10:35:51.680Z,72.47
2018-07-21T10:36:51.638Z,73.05
2018-07-21T10:37:51.632Z,74.41
2018-07-21T10:38:51.595Z,73.05
2018-07-21T10:39:51.562Z,72.67
2018-07-21T10:40:51.545Z,72.09
2018-07-21T10:41:51.514Z,73.21
2018-07-21T10:42:51.479Z,73.79
2018-07-21T10:43:51.465Z,73.50
2018-07-21T10:44:51.446Z,74.76
2018-07-21T10:45:51.396Z,75.92
2018-07-21T10:46:51.401Z,74.99
2018-07-21T10:47:51.377Z,73.35
2018-07-21T10:48:51.348Z,72.38
2018-07-21T10:49:51.353Z,72.28
2018-07-21T10:50:51.408Z,72.09
2018-07-21T10:51:51.354Z,71.99
2018-07-21T10:52:51.213Z,72.80
2018-07-21T10:53:51.261Z,73.09
2018-07-21T10:54:51.169Z,73.19
2018-07-21T10:55:51.141Z,74.99
2018-07-21T10:56:51.120Z,74.70
2018-07-21T10:57:51.073Z,71.99
2018-07-21T10:58:51.058Z,74.60
2018-07-21T10:59:51.034Z,73.60
2018-07-21T11:00:51.002Z,75.15
2018-07-21T11:01:50.978Z,74.57
2018-07-21T11:02:50.958Z,73.79
2018-07-21T11:03:51.829Z,75.44
2018-07-21T11:04:50.898Z,75.15
2018-07-21T11:05:50.876Z,75.34
2018-07-21T11:06:50.856Z,77.19
2018-07-21T11:07:50.826Z,75.92
2018-07-21T11:08:50.801Z,73.89
2018-07-21T11:09:50.768Z,73.31
2018-07-21T11:10:50.784Z,75.60
2018-07-21T11:11:50.727Z,75.50
2018-07-21T11:12:50.701Z,77.82
2018-07-21T11:13:50.668Z,79.27
2018-07-21T11:14:50.672Z,75.60
2018-07-21T11:15:50.624Z,75.60
2018-07-21T11:16:50.646Z,74.53
2018-07-21T11:17:50.640Z,75.31
2018-07-21T11:18:50.612Z,75.50
2018-07-21T11:19:50.520Z,77.01
2018-07-21T11:20:50.508Z,77.59
2018-07-21T11:21:50.476Z,78.75
2018-07-21T11:22:50.481Z,80.59
2018-07-21T11:23:50.400Z,82.43
2018-07-21T11:24:50.386Z,81.95
2018-07-21T11:25:50.366Z,82.58
2018-07-21T11:26:50.320Z,79.91
2018-07-21T11:27:50.307Z,79.68
2018-07-21T11:28:50.282Z,80.55
2018-07-21T11:29:50.254Z,84.42
2018-07-21T11:30:50.228Z,80.49
2018-07-21T11:31:50.205Z,80.11
2018-07-21T11:32:50.171Z,80.40
2018-07-21T11:33:50.130Z,80.98
2018-07-21T11:34:50.105Z,84.46
2018-07-21T11:35:50.314Z,84.22
2018-07-21T11:36:50.143Z,82.58
2018-07-21T11:37:50.029Z,85.68
2018-07-21T11:38:50.004Z,85.48
2018-07-21T11:39:49.977Z,89.25
2018-07-21T11:40:49.953Z,92.01
2018-07-21T11:41:49.926Z,99.99
2018-07-21T11:42:49.899Z,99.99
2018-07-21T11:43:49.863Z,99.99
2018-07-21T11:44:49.832Z,99.99
2018-07-21T11:45:49.828Z,99.99
2018-07-21T11:46:49.920Z,99.99
2018-07-21T11:47:49.760Z,99.99
2018-07-21T11:48:49.721Z,99.99
2018-07-21T11:49:49.703Z,99.99
2018-07-21T11:50:49.685Z,99.99
2018-07-21T11:51:49.647Z,94.53
2018-07-21T11:52:49.625Z,99.40
2018-07-21T11:53:49.593Z,87.54
2018-07-21T11:54:49.566Z,89.57
2018-07-21T11:55:49.526Z,85.67
2018-07-21T11:56:49.531Z,83.74
2018-07-21T11:57:49.520Z,76.61
2018-07-21T11:58:49.460Z,73.62
2018-07-21T11:59:49.423Z,75.07
2018-07-21T12:00:49.399Z,75.84
2018-07-21T12:01:49.395Z,69.29
2018-07-21T12:02:49.337Z,71.12
2018-07-21T12:03:49.302Z,66.78
2018-07-21T12:04:49.278Z,65.53
2018-07-21T12:05:49.257Z,59.36
2018-07-21T12:06:49.234Z,66.85
2018-07-21T12:07:49.206Z,66.94
2018-07-21T12:08:49.170Z,56.35
2018-07-21T12:09:49.166Z,62.60
2018-07-21T12:10:49.126Z,61.83
2018-07-21T12:11:49.115Z,57.50
2018-07-21T12:12:49.136Z,60.68
2018-07-21T12:13:49.026Z,52.59
2018-07-21T12:14:49.068Z,54.61
2018-07-21T12:15:48.965Z,52.01
2018-07-21T12:16:48.941Z,52.59
2018-07-21T12:17:48.911Z,55.09
2018-07-21T12:18:48.873Z,58.75
2018-07-21T12:19:48.848Z,58.08
2018-07-21T12:20:48.821Z,55.38
2018-07-21T12:21:48.793Z,50.54
2018-07-21T12:22:48.763Z,49.77
2018-07-21T12:23:48.743Z,44.38
2018-07-21T12:24:48.704Z,49.29
2018-07-21T12:25:48.677Z,49.29
2018-07-21T12:26:48.638Z,46.40
2018-07-21T12:27:48.627Z,37.64
2018-07-21T12:28:48.587Z,35.91
2018-07-21T12:29:48.559Z,32.33
2018-07-21T12:30:48.515Z,31.29
2018-07-21T12:31:48.488Z,29.83
2018-07-21T12:32:48.474Z,26.09
2018-07-21T12:33:48.443Z,24.92
2018-07-21T12:34:48.428Z,24.05
2018-07-21T12:35:48.425Z,21.27
2018-07-21T12:36:48.369Z,21.18
2018-07-21T12:37:48.344Z,18.87
2018-07-21T12:38:48.323Z,21.75
2018-07-21T12:39:48.273Z,22.14
2018-07-21T12:40:48.259Z,20.79
2018-07-21T12:41:48.199Z,21.65
2018-07-21T12:42:48.187Z,35.50
2018-07-21T12:43:48.201Z,30.69
2018-07-21T12:44:48.178Z,20.87
2018-07-21T12:45:48.073Z,21.54
2018-07-21T12:46:48.079Z,23.37
2018-07-21T12:47:48.013Z,13.56
2018-07-21T12:48:47.988Z,12.79
2018-07-21T12:49:47.995Z,11.25
2018-07-21T12:50:47.926Z,11.54
2018-07-21T12:51:47.905Z,6.16